createdAt,value
2019-03-28T00:00:16.560Z,6.83
2019-03-28T00:02:44.777Z,7.78
2019-03-28T00:05:13.364Z,6.08
2019-03-28T00:07:41.584Z,9.28
2019-03-28T00:10:10.101Z,10.43
2019-03-28T00:12:38.513Z,7.70
2019-03-28T00:15:06.980Z,11.80
2019-03-28T00:17:35.208Z,14.60
2019-03-28T00:20:05.045Z,12.40
2019-03-28T00:22:47.144Z,15.70
2019-03-28T00:25:19.510Z,13.15
2019-03-28T00:27:48.027Z,13.68
2019-03-28T00:30:17.921Z,13.75
2019-03-28T00:32:46.163Z,15.68
2019-03-28T00:35:14.372Z,14.83
2019-03-28T00:37:42.677Z,14.20
2019-03-28T00:40:11.148Z,13.15
2019-03-28T00:42:39.380Z,16.48
2019-03-28T00:45:07.606Z,13.53
2019-03-28T00:47:36.229Z,12.68
2019-03-28T00:50:08.190Z,13.65
2019-03-28T00:52:36.568Z,15.53
2019-03-28T00:55:06.129Z,12.43
2019-03-28T00:57:34.370Z,11.50
2019-03-28T01:00:02.583Z,11.78
2019-03-28T01:02:30.814Z,10.55
2019-03-28T01:04:59.052Z,10.75
2019-03-28T01:07:27.281Z,8.50
2019-03-28T01:09:55.524Z,10.03
2019-03-28T01:12:24.068Z,8.75
2019-03-28T01:14:52.291Z,8.30
2019-03-28T01:17:20.516Z,9.03
2019-03-28T01:19:48.732Z,8.85
2019-03-28T01:22:16.966Z,8.00
2019-03-28T01:24:45.176Z,8.08
2019-03-28T01:27:13.408Z,7.80
2019-03-28T01:29:41.630Z,10.05
2019-03-28T01:32:09.857Z,8.33
2019-03-28T01:34:38.076Z,14.00
2019-03-28T01:37:06.628Z,10.95
2019-03-28T01:39:35.291Z,9.68
2019-03-28T01:42:03.756Z,7.80
2019-03-28T01:44:31.965Z,10.00
2019-03-28T01:47:00.197Z,6.85
2019-03-28T01:49:28.420Z,9.65
2019-03-28T01:51:56.654Z,7.85
2019-03-28T01:54:24.876Z,11.48
2019-03-28T01:56:53.100Z,8.83
2019-03-28T01:59:21.414Z,8.80
2019-03-28T02:01:49.717Z,10.50
2019-03-28T02:04:17.940Z,7.30
2019-03-28T02:06:46.160Z,7.72
2019-03-28T02:09:14.392Z,8.00
2019-03-28T02:11:42.612Z,12.53
2019-03-28T02:14:10.842Z,9.60
2019-03-28T02:16:39.056Z,10.55
2019-03-28T02:19:07.288Z,13.22
2019-03-28T02:21:36.082Z,10.03
2019-03-28T02:24:04.309Z,12.88
2019-03-28T02:26:32.524Z,9.78
2019-03-28T02:29:00.752Z,7.60
2019-03-28T02:31:28.969Z,9.33
2019-03-28T02:33:57.202Z,10.85
2019-03-28T02:36:25.422Z,9.40
2019-03-28T02:38:53.649Z,8.50
2019-03-28T02:41:21.868Z,10.08
2019-03-28T02:43:50.112Z,7.67
2019-03-28T02:46:18.321Z,10.23
2019-03-28T02:48:46.572Z,6.20
2019-03-28T02:51:14.953Z,11.30
2019-03-28T02:53:43.192Z,8.35
2019-03-28T02:56:11.414Z,9.08
2019-03-28T02:58:39.645Z,9.33
2019-03-28T03:01:07.865Z,8.53
2019-03-28T03:03:36.405Z,8.75
2019-03-28T03:06:04.622Z,8.50
2019-03-28T03:08:33.587Z,8.78
2019-03-28T03:11:01.945Z,6.90
2019-03-28T03:13:49.889Z,9.78
2019-03-28T03:16:18.108Z,8.28
2019-03-28T03:18:46.345Z,10.15
2019-03-28T03:21:14.571Z,10.55
2019-03-28T03:23:42.826Z,11.45
2019-03-28T03:26:11.042Z,9.38
2019-03-28T03:28:39.276Z,17.67
2019-03-28T03:31:07.496Z,8.18
2019-03-28T03:33:37.360Z,11.55
2019-03-28T03:36:06.108Z,10.43
2019-03-28T03:38:34.340Z,10.18
2019-03-28T03:41:02.561Z,10.63
2019-03-28T03:43:30.790Z,11.65
2019-03-28T03:45:59.327Z,10.38
2019-03-28T03:48:27.569Z,11.70
2019-03-28T03:50:55.771Z,13.10
2019-03-28T03:53:23.984Z,11.60
2019-03-28T03:55:52.217Z,8.85
2019-03-28T03:58:20.433Z,11.15
2019-03-28T04:00:48.675Z,11.50
2019-03-28T04:03:16.899Z,10.23
2019-03-28T04:05:45.132Z,12.45
2019-03-28T04:08:13.354Z,8.95
2019-03-28T04:10:41.592Z,11.73
2019-03-28T04:13:10.693Z,11.48
2019-03-28T04:15:39.091Z,11.63
2019-03-28T04:18:07.308Z,10.68
2019-03-28T04:20:35.544Z,11.30
2019-03-28T04:23:04.045Z,14.33
2019-03-28T04:25:32.471Z,14.20
2019-03-28T04:28:00.694Z,16.70
2019-03-28T04:30:28.930Z,14.40
2019-03-28T04:32:57.144Z,13.53
2019-03-28T04:35:25.387Z,17.20
2019-03-28T04:37:53.649Z,12.30
2019-03-28T04:40:21.912Z,15.13
2019-03-28T04:42:50.128Z,13.38
2019-03-28T04:45:18.360Z,21.55
2019-03-28T04:47:46.582Z,20.62
2019-03-28T04:50:14.807Z,18.15
2019-03-28T04:52:43.032Z,14.95
2019-03-28T04:55:11.260Z,13.78
2019-03-28T04:57:41.010Z,11.80
2019-03-28T05:00:09.764Z,9.83
2019-03-28T05:02:38.056Z,8.60
2019-03-28T05:05:06.850Z,10.08
2019-03-28T05:07:35.068Z,9.03
2019-03-28T05:10:04.262Z,12.58
2019-03-28T05:12:32.479Z,13.65
2019-03-28T05:15:00.708Z,14.30
2019-03-28T05:17:29.240Z,13.75
2019-03-28T05:19:57.725Z,12.33
2019-03-28T05:22:25.944Z,11.70
2019-03-28T05:24:54.177Z,11.80
2019-03-28T05:27:22.392Z,14.03
2019-03-28T05:29:50.620Z,9.75
2019-03-28T05:32:18.847Z,11.83
2019-03-28T05:34:47.381Z,12.18
2019-03-28T05:37:15.616Z,10.23
2019-03-28T05:40:04.249Z,13.80
2019-03-28T05:42:32.465Z,13.15
2019-03-28T05:45:00.692Z,14.53
2019-03-28T05:47:29.448Z,12.85
2019-03-28T05:49:57.820Z,13.43
2019-03-28T05:52:26.036Z,14.70
2019-03-28T05:54:54.254Z,13.70
2019-03-28T05:57:22.487Z,15.72
2019-03-28T05:59:50.696Z,11.88
2019-03-28T06:02:18.936Z,15.15
2019-03-28T06:04:47.207Z,12.20
2019-03-28T06:07:15.429Z,9.60
2019-03-28T06:09:44.515Z,13.68
2019-03-28T06:12:12.856Z,11.33
2019-03-28T06:14:41.084Z,11.00
2019-03-28T06:17:09.305Z,14.33
2019-03-28T06:19:38.347Z,15.63
2019-03-28T06:22:26.247Z,14.10
2019-03-28T06:24:54.469Z,10.68
2019-03-28T06:27:22.713Z,11.65
2019-03-28T06:29:50.927Z,12.03
2019-03-28T06:32:19.172Z,12.00
2019-03-28T06:34:47.389Z,13.15
2019-03-28T06:37:15.632Z,11.20
2019-03-28T06:39:43.852Z,15.15
2019-03-28T06:42:12.087Z,13.35
2019-03-28T06:44:40.303Z,11.60
2019-03-28T06:47:08.540Z,15.28
2019-03-28T06:49:36.756Z,17.87
2019-03-28T06:52:04.984Z,12.58
2019-03-28T06:54:33.206Z,13.60
2019-03-28T06:57:01.446Z,15.18
2019-03-28T06:59:37.197Z,14.35
2019-03-28T07:02:21.789Z,16.40
2019-03-28T07:04:49.078Z,16.37
2019-03-28T07:07:18.621Z,13.00
2019-03-28T07:09:47.052Z,15.58
2019-03-28T07:12:15.283Z,12.03
2019-03-28T07:14:43.745Z,15.45
2019-03-28T07:17:11.972Z,15.60
2019-03-28T07:19:40.196Z,15.28
2019-03-28T07:22:08.705Z,15.43
2019-03-28T07:24:37.389Z,15.55
2019-03-28T07:27:05.880Z,15.15
2019-03-28T07:29:34.093Z,16.23
2019-03-28T07:32:02.352Z,17.40
2019-03-28T07:34:30.582Z,17.52
2019-03-28T07:36:59.078Z,16.50
2019-03-28T07:39:27.314Z,16.40
2019-03-28T07:41:55.545Z,14.78
2019-03-28T07:44:23.766Z,16.52
2019-03-28T07:46:52.017Z,15.05
2019-03-28T07:49:20.258Z,14.10
2019-03-28T07:51:48.803Z,16.07
2019-03-28T07:54:17.020Z,12.43
2019-03-28T07:56:45.260Z,12.53
2019-03-28T07:59:13.488Z,14.73
2019-03-28T08:01:41.735Z,17.00
2019-03-28T08:04:12.267Z,13.45
2019-03-28T08:06:49.592Z,13.45
2019-03-28T08:09:10.676Z,12.80
2019-03-28T08:11:39.057Z,15.08
2019-03-28T08:14:07.402Z,16.60
2019-03-28T08:16:35.628Z,15.13
2019-03-28T08:19:03.852Z,14.18
2019-03-28T08:21:32.354Z,13.90
2019-03-28T08:24:00.587Z,12.88
2019-03-28T08:26:30.451Z,14.98
2019-03-28T08:28:58.826Z,13.98
2019-03-28T08:31:27.317Z,16.20
2019-03-28T08:33:55.557Z,16.25
2019-03-28T08:36:23.844Z,15.23
2019-03-28T08:38:52.447Z,12.78
2019-03-28T08:41:20.668Z,15.30
2019-03-28T08:43:48.906Z,13.05
2019-03-28T08:46:17.397Z,13.83
2019-03-28T08:48:45.683Z,14.65
2019-03-28T08:51:13.912Z,11.33
2019-03-28T08:53:42.143Z,16.90
2019-03-28T08:56:10.393Z,15.10
2019-03-28T08:58:38.717Z,11.35
2019-03-28T09:01:07.802Z,9.95
2019-03-28T09:03:36.062Z,6.47
2019-03-28T09:06:04.281Z,11.68
2019-03-28T09:08:32.516Z,7.97
2019-03-28T09:11:00.741Z,7.33
2019-03-28T09:13:28.963Z,6.92
2019-03-28T09:15:57.417Z,5.78
2019-03-28T09:18:31.828Z,9.35
2019-03-28T09:21:00.060Z,14.60
2019-03-28T09:23:28.469Z,6.12
2019-03-28T09:25:57.077Z,8.03
2019-03-28T09:28:25.404Z,17.60
2019-03-28T09:30:53.640Z,12.10
2019-03-28T09:33:21.880Z,11.48
2019-03-28T09:35:50.215Z,10.95
2019-03-28T09:38:18.616Z,8.95
2019-03-28T09:40:46.841Z,8.28
2019-03-28T09:43:15.072Z,8.23
2019-03-28T09:45:43.296Z,7.53
2019-03-28T09:48:12.105Z,5.67
2019-03-28T09:50:40.760Z,6.70
2019-03-28T09:53:08.998Z,6.97
2019-03-28T09:55:37.219Z,8.70
2019-03-28T09:58:05.496Z,6.30
2019-03-28T10:00:34.730Z,7.42
2019-03-28T10:03:03.177Z,8.15
2019-03-28T10:05:31.414Z,5.90
2019-03-28T10:07:59.633Z,6.30
2019-03-28T10:10:27.873Z,5.33
2019-03-28T10:12:56.092Z,5.08
2019-03-28T10:15:24.341Z,4.78
2019-03-28T10:17:52.565Z,3.67
2019-03-28T10:20:20.812Z,5.92
2019-03-28T10:22:49.035Z,6.75
2019-03-28T10:25:17.264Z,8.43
2019-03-28T10:27:45.497Z,10.03
2019-03-28T10:30:13.751Z,8.35
2019-03-28T10:32:41.988Z,5.75
2019-03-28T10:35:13.494Z,6.92
2019-03-28T10:37:41.805Z,10.35
2019-03-28T10:40:10.091Z,8.75
2019-03-28T10:42:38.359Z,6.97
2019-03-28T10:45:06.795Z,4.55
2019-03-28T10:47:35.055Z,4.62
2019-03-28T10:50:04.437Z,5.35
2019-03-28T10:52:33.134Z,8.03
2019-03-28T10:55:01.409Z,11.18
2019-03-28T10:57:30.518Z,4.97
2019-03-28T10:59:59.667Z,5.05
2019-03-28T11:02:28.967Z,7.17
2019-03-28T11:04:57.436Z,5.08
2019-03-28T11:07:25.981Z,7.33
2019-03-28T11:09:54.252Z,14.35
2019-03-28T11:12:22.508Z,5.83
2019-03-28T11:14:50.802Z,5.97
2019-03-28T11:17:19.065Z,5.47
2019-03-28T11:19:47.351Z,4.35
2019-03-28T11:22:16.049Z,5.28
2019-03-28T11:24:46.312Z,3.67
2019-03-28T11:27:14.300Z,4.22
2019-03-28T11:29:42.580Z,4.40
2019-03-28T11:32:11.185Z,4.00
2019-03-28T11:34:39.536Z,4.42
2019-03-28T11:37:11.229Z,4.75
2019-03-28T11:39:37.792Z,4.45
2019-03-28T11:42:06.601Z,5.53
2019-03-28T11:44:34.878Z,5.22
2019-03-28T11:47:03.509Z,5.85
2019-03-28T11:49:31.783Z,8.15
2019-03-28T11:52:00.045Z,7.55
2019-03-28T11:54:28.324Z,5.45
2019-03-28T11:56:56.640Z,4.47
2019-03-28T11:59:24.953Z,5.78
2019-03-28T12:01:59.911Z,5.30
2019-03-28T12:04:23.217Z,9.55
2019-03-28T12:06:51.485Z,7.70
2019-03-28T12:09:19.755Z,5.10
2019-03-28T12:11:48.020Z,5.20
2019-03-28T12:14:16.297Z,4.45
2019-03-28T12:16:44.568Z,6.97
2019-03-28T12:19:12.896Z,5.05
2019-03-28T12:21:41.532Z,6.42
2019-03-28T12:24:10.161Z,5.70
2019-03-28T12:26:38.415Z,5.28
2019-03-28T12:29:06.685Z,3.90
2019-03-28T12:31:34.960Z,4.22
2019-03-28T12:34:03.401Z,6.95
2019-03-28T12:36:31.669Z,4.25
2019-03-28T12:38:59.928Z,5.75
2019-03-28T12:41:28.200Z,5.58
2019-03-28T12:43:56.461Z,4.22
2019-03-28T12:46:25.780Z,5.37
2019-03-28T12:48:54.612Z,3.77
2019-03-28T12:51:23.199Z,5.15
2019-03-28T12:53:51.632Z,5.40
2019-03-28T12:56:19.900Z,6.12
2019-03-28T12:58:48.635Z,5.15
2019-03-28T13:01:17.229Z,7.92
2019-03-28T13:03:46.486Z,5.50
2019-03-28T13:06:14.999Z,3.87
2019-03-28T13:08:43.811Z,4.05
2019-03-28T13:11:12.264Z,4.25
2019-03-28T13:13:40.520Z,7.47
2019-03-28T13:16:09.240Z,3.67
2019-03-28T13:18:37.543Z,4.90
2019-03-28T13:21:13.506Z,4.20
2019-03-28T13:23:35.791Z,5.53
2019-03-28T13:26:04.069Z,5.75
2019-03-28T13:28:32.336Z,6.12
2019-03-28T13:31:00.611Z,6.10
2019-03-28T13:33:28.881Z,6.53
2019-03-28T13:35:57.265Z,6.53
2019-03-28T13:38:25.528Z,3.95
2019-03-28T13:40:53.798Z,4.25
2019-03-28T13:43:22.056Z,4.00
2019-03-28T13:45:50.328Z,5.33
2019-03-28T13:48:18.597Z,4.42
2019-03-28T13:50:46.943Z,3.98
2019-03-28T13:53:15.216Z,6.95
2019-03-28T13:55:44.540Z,5.80
2019-03-28T13:58:13.807Z,4.15
2019-03-28T14:00:42.363Z,5.25
2019-03-28T14:03:10.626Z,3.67
2019-03-28T14:05:38.905Z,4.65
2019-03-28T14:08:07.169Z,5.03
2019-03-28T14:10:35.727Z,4.12
2019-03-28T14:13:03.984Z,5.87
2019-03-28T14:15:32.278Z,5.67
2019-03-28T14:18:00.560Z,5.37
2019-03-28T14:20:48.268Z,5.05
2019-03-28T14:23:16.535Z,4.00
2019-03-28T14:25:44.811Z,3.87
2019-03-28T14:28:13.098Z,3.83
2019-03-28T14:30:41.434Z,4.58
2019-03-28T14:33:11.447Z,5.35
2019-03-28T14:35:39.744Z,3.42
2019-03-28T14:38:08.143Z,4.97
2019-03-28T14:40:36.495Z,3.77
2019-03-28T14:43:04.752Z,3.42
2019-03-28T14:45:33.036Z,3.83
2019-03-28T14:48:01.292Z,3.98
2019-03-28T14:50:37.159Z,5.20
2019-03-28T14:53:05.756Z,6.40
2019-03-28T14:55:34.295Z,6.53
2019-03-28T14:58:03.497Z,7.25
2019-03-28T15:00:49.656Z,4.85
2019-03-28T15:03:26.389Z,5.90
2019-03-28T15:05:48.136Z,6.40
2019-03-28T15:08:16.407Z,3.12
2019-03-28T15:10:44.753Z,6.75
2019-03-28T15:13:13.080Z,3.90
2019-03-28T15:15:41.354Z,5.30
2019-03-28T15:18:09.619Z,6.78
2019-03-28T15:20:37.904Z,6.60
2019-03-28T15:23:06.433Z,3.55
2019-03-28T15:25:34.711Z,4.72
2019-03-28T15:28:02.980Z,5.22
2019-03-28T15:30:31.265Z,4.67
2019-03-28T15:32:59.575Z,3.92
2019-03-28T15:35:27.843Z,5.30
2019-03-28T15:37:56.141Z,5.03
2019-03-28T15:40:24.668Z,5.33
2019-03-28T15:42:52.953Z,4.40
2019-03-28T15:45:21.576Z,6.17
2019-03-28T15:47:52.049Z,5.42
2019-03-28T15:50:19.978Z,6.87
2019-03-28T15:52:48.370Z,5.35
2019-03-28T15:55:16.644Z,4.50
2019-03-28T15:57:44.908Z,4.78
2019-03-28T16:00:13.748Z,3.62
2019-03-28T16:02:42.031Z,6.50
2019-03-28T16:05:10.296Z,7.17
2019-03-28T16:07:38.608Z,6.60
2019-03-28T16:10:07.424Z,4.92
2019-03-28T16:12:35.684Z,5.50
2019-03-28T16:15:07.963Z,4.87
2019-03-28T16:17:36.246Z,5.28
2019-03-28T16:20:05.957Z,4.08
2019-03-28T16:22:34.241Z,4.33
2019-03-28T16:25:02.516Z,4.67
2019-03-28T16:27:30.768Z,2.62
2019-03-28T16:29:59.378Z,5.85
2019-03-28T16:32:28.569Z,4.50
2019-03-28T16:34:57.200Z,5.53
2019-03-28T16:37:25.467Z,4.47
2019-03-28T16:39:53.728Z,4.65
2019-03-28T16:42:21.992Z,2.77
2019-03-28T16:44:50.264Z,4.37
2019-03-28T16:47:19.802Z,2.77
2019-03-28T16:49:48.104Z,2.92
2019-03-28T16:52:16.356Z,3.65
2019-03-28T16:54:44.627Z,3.05
2019-03-28T16:57:12.900Z,3.05
2019-03-28T16:59:41.248Z,6.97
2019-03-28T17:02:09.520Z,3.55
2019-03-28T17:04:37.798Z,3.50
2019-03-28T17:07:07.564Z,4.55
2019-03-28T17:09:37.596Z,5.58
2019-03-28T17:12:06.071Z,7.43
2019-03-28T17:14:34.356Z,6.05
2019-03-28T17:17:02.632Z,5.67
2019-03-28T17:19:30.896Z,5.08
2019-03-28T17:21:59.177Z,7.30
2019-03-28T17:24:28.106Z,5.30
2019-03-28T17:26:56.944Z,5.90
2019-03-28T17:29:25.243Z,4.92
2019-03-28T17:31:53.515Z,6.40
2019-03-28T17:34:34.023Z,5.85
2019-03-28T17:36:51.795Z,6.85
2019-03-28T17:39:20.405Z,4.65
2019-03-28T17:41:48.715Z,6.40
2019-03-28T17:44:16.983Z,4.58
2019-03-28T17:46:45.619Z,8.08
2019-03-28T17:49:13.884Z,8.43
2019-03-28T17:51:42.200Z,5.08
2019-03-28T17:54:11.813Z,8.40
2019-03-28T17:56:40.394Z,8.58
2019-03-28T17:59:08.657Z,6.28
2019-03-28T18:01:36.934Z,7.45
2019-03-28T18:04:05.864Z,4.72
2019-03-28T18:06:35.011Z,5.90
2019-03-28T18:09:05.108Z,7.25
2019-03-28T18:11:33.636Z,9.15
2019-03-28T18:14:01.897Z,9.18
2019-03-28T18:16:30.248Z,6.33
2019-03-28T18:18:58.540Z,7.15
2019-03-28T18:21:26.923Z,4.42
2019-03-28T18:23:55.310Z,5.05
2019-03-28T18:26:23.588Z,5.53
2019-03-28T18:28:51.843Z,5.58
2019-03-28T18:31:20.168Z,4.58
2019-03-28T18:33:48.423Z,4.97
2019-03-28T18:36:16.734Z,5.17
2019-03-28T18:38:45.105Z,5.25
2019-03-28T18:41:13.381Z,5.22
2019-03-28T18:43:41.640Z,5.75
2019-03-28T18:46:09.940Z,8.43
2019-03-28T18:48:57.709Z,5.33
2019-03-28T18:51:25.992Z,8.63
2019-03-28T18:53:54.246Z,6.55
2019-03-28T18:56:22.540Z,4.72
2019-03-28T18:58:50.797Z,5.30
2019-03-28T19:01:19.072Z,4.17
2019-03-28T19:03:47.780Z,4.47
2019-03-28T19:06:16.823Z,4.05
2019-03-28T19:08:45.313Z,4.53
2019-03-28T19:11:13.841Z,5.60
2019-03-28T19:13:42.111Z,4.47
2019-03-28T19:16:10.376Z,3.22
2019-03-28T19:18:38.720Z,3.95
2019-03-28T19:21:07.010Z,5.47
2019-03-28T19:23:35.433Z,2.83
2019-03-28T19:26:03.704Z,2.77
2019-03-28T19:28:32.056Z,4.22
2019-03-28T19:31:00.674Z,4.45
2019-03-28T19:33:29.112Z,3.83
2019-03-28T19:36:01.129Z,3.00
2019-03-28T19:38:28.466Z,3.80
2019-03-28T19:40:57.088Z,2.98
2019-03-28T19:43:25.391Z,4.58
2019-03-28T19:45:53.648Z,2.83
2019-03-28T19:48:22.033Z,3.65
2019-03-28T19:50:50.366Z,4.42
2019-03-28T19:53:18.728Z,2.83
2019-03-28T19:55:46.988Z,2.60
2019-03-28T19:58:15.600Z,5.55
2019-03-28T20:00:43.981Z,3.75
2019-03-28T20:03:12.614Z,3.05
2019-03-28T20:05:47.339Z,3.50
2019-03-28T20:08:15.920Z,2.55
2019-03-28T20:10:41.400Z,4.00
2019-03-28T20:13:09.750Z,2.42
2019-03-28T20:15:38.448Z,4.72
2019-03-28T20:18:07.158Z,3.22
2019-03-28T20:20:35.480Z,2.85
2019-03-28T20:23:03.796Z,4.08
2019-03-28T20:25:32.664Z,5.55
2019-03-28T20:28:01.104Z,2.27
2019-03-28T20:30:29.479Z,3.25
2019-03-28T20:32:57.821Z,3.08
2019-03-28T20:35:26.079Z,5.17
2019-03-28T20:37:54.388Z,5.45
2019-03-28T20:40:22.783Z,3.85
2019-03-28T20:42:51.075Z,3.17
2019-03-28T20:45:19.450Z,5.83
2019-03-28T20:47:47.719Z,2.98
2019-03-28T20:50:15.981Z,7.60
2019-03-28T20:52:44.841Z,4.05
2019-03-28T20:55:13.423Z,3.92
2019-03-28T20:57:41.772Z,3.00
2019-03-28T21:00:11.308Z,5.20
2019-03-28T21:02:39.576Z,3.75
2019-03-28T21:05:08.102Z,4.80
2019-03-28T21:07:36.522Z,6.10
2019-03-28T21:10:06.247Z,4.42
2019-03-28T21:12:34.518Z,4.75
2019-03-28T21:15:02.796Z,3.60
2019-03-28T21:17:32.217Z,4.75
2019-03-28T21:20:01.019Z,4.37
2019-03-28T21:22:29.395Z,4.08
2019-03-28T21:24:57.604Z,3.60
2019-03-28T21:27:25.883Z,4.15
2019-03-28T21:29:54.400Z,4.17
2019-03-28T21:32:22.628Z,4.70
2019-03-28T21:34:50.908Z,4.78
2019-03-28T21:37:19.421Z,5.85
2019-03-28T21:39:47.652Z,4.62
2019-03-28T21:42:15.909Z,3.47
2019-03-28T21:44:44.461Z,7.30
2019-03-28T21:47:12.935Z,4.00
2019-03-28T21:49:41.160Z,7.05
2019-03-28T21:52:09.429Z,4.75
2019-03-28T21:54:37.636Z,9.50
2019-03-28T21:57:05.869Z,7.97
2019-03-28T21:59:34.424Z,6.58
2019-03-28T22:02:02.657Z,5.47
2019-03-28T22:04:30.905Z,6.33
2019-03-28T22:06:59.180Z,5.58
2019-03-28T22:09:27.399Z,7.22
2019-03-28T22:11:55.632Z,8.23
2019-03-28T22:14:23.897Z,6.50
2019-03-28T22:16:52.124Z,8.58
2019-03-28T22:19:20.348Z,7.05
2019-03-28T22:21:48.569Z,7.45
2019-03-28T22:24:16.824Z,6.65
2019-03-28T22:26:46.160Z,5.20
2019-03-28T22:29:14.540Z,7.17
2019-03-28T22:31:42.765Z,5.58
2019-03-28T22:34:11.064Z,5.75
2019-03-28T22:36:39.288Z,7.00
2019-03-28T22:39:07.787Z,7.35
2019-03-28T22:41:36.007Z,7.12
2019-03-28T22:44:04.245Z,6.58
2019-03-28T22:46:32.486Z,5.62
2019-03-28T22:49:00.704Z,5.22
2019-03-28T22:51:31.544Z,7.42
2019-03-28T22:53:58.899Z,6.75
2019-03-28T22:56:27.436Z,6.47
2019-03-28T22:58:55.676Z,5.85
2019-03-28T23:01:23.897Z,6.62
2019-03-28T23:03:52.196Z,6.35
2019-03-28T23:06:20.421Z,6.70
2019-03-28T23:08:48.656Z,8.63
2019-03-28T23:11:16.886Z,7.10
2019-03-28T23:13:45.112Z,10.53
2019-03-28T23:16:14.551Z,8.60
2019-03-28T23:18:42.796Z,8.20
2019-03-28T23:21:11.329Z,8.30
2019-03-28T23:23:39.564Z,8.55
2019-03-28T23:26:27.252Z,8.78
2019-03-28T23:28:55.500Z,8.85
2019-03-28T23:31:23.718Z,9.93
2019-03-28T23:33:51.948Z,8.53
2019-03-28T23:36:20.177Z,8.28
2019-03-28T23:38:48.424Z,7.40
2019-03-28T23:41:16.644Z,9.65
2019-03-28T23:43:44.900Z,7.47
2019-03-28T23:46:13.120Z,7.78
2019-03-28T23:48:41.349Z,7.40
2019-03-28T23:51:09.574Z,9.28
2019-03-28T23:53:37.800Z,9.15
2019-03-28T23:56:06.068Z,9.53
2019-03-28T23:58:34.332Z,8.18
